sensor_id;sensor_type;location;lat;lon;timestamp;pressure;altitude;pressure_sealevel;temperature;humidity
51928;BME280;37953;52.806;18.270;2023-07-13T00:00:36;100154.06;;;20.97;100.00
51928;BME280;37953;52.806;18.270;2023-07-13T00:03:22;100156.72;;;20.97;100.00
51928;BME280;37953;52.806;18.270;2023-07-13T00:05:57;100154.94;;;20.98;100.00
51928;BME280;37953;52.806;18.270;2023-07-13T00:08:23;100158.66;;;20.93;100.00
51928;BME280;37953;52.806;18.270;2023-07-13T00:10:51;100162.19;;;20.92;100.00
51928;BME280;37953;52.806;18.270;2023-07-13T00:13:20;100164.84;;;20.92;100.00
51928;BME280;37953;52.806;18.270;2023-07-13T00:15:46;100166.63;;;20.92;100.00
51928;BME280;37953;52.806;18.270;2023-07-13T00:18:14;100165.13;;;20.86;100.00
51928;BME280;37953;52.806;18.270;2023-07-13T00:20:40;100158.34;;;20.81;100.00
51928;BME280;37953;52.806;18.270;2023-07-13T00:23:07;100164.59;;;20.78;100.00
51928;BME280;37953;52.806;18.270;2023-07-13T00:25:33;100160.38;;;20.74;100.00
51928;BME280;37953;52.806;18.270;2023-07-13T00:27:59;100162.31;;;20.70;100.00
51928;BME280;37953;52.806;18.270;2023-07-13T00:30:25;100166.81;;;20.68;100.00
51928;BME280;37953;52.806;18.270;2023-07-13T00:32:59;100165.88;;;20.69;100.00
51928;BME280;37953;52.806;18.270;2023-07-13T00:35:30;100167.72;;;20.67;100.00
51928;BME280;37953;52.806;18.270;2023-07-13T00:37:57;100167.97;;;20.61;100.00
51928;BME280;37953;52.806;18.270;2023-07-13T00:40:22;100172.56;;;20.56;100.00
51928;BME280;37953;52.806;18.270;2023-07-13T00:42:52;100177.84;;;20.56;100.00
51928;BME280;37953;52.806;18.270;2023-07-13T00:47:44;100183.19;;;20.54;100.00
51928;BME280;37953;52.806;18.270;2023-07-13T00:50:12;100185.81;;;20.54;100.00
51928;BME280;37953;52.806;18.270;2023-07-13T00:52:43;100189.31;;;20.55;100.00
51928;BME280;37953;52.806;18.270;2023-07-13T00:55:13;100195.53;;;20.54;100.00
51928;BME280;37953;52.806;18.270;2023-07-13T00:57:40;100196.53;;;20.51;100.00
51928;BME280;37953;52.806;18.270;2023-07-13T01:00:08;100208.84;;;20.51;100.00
51928;BME280;37953;52.806;18.270;2023-07-13T01:02:43;100219.50;;;20.49;100.00
51928;BME280;37953;52.806;18.270;2023-07-13T01:05:16;100216.75;;;20.51;100.00
51928;BME280;37953;52.806;18.270;2023-07-13T01:07:43;100215.13;;;20.48;100.00
51928;BME280;37953;52.806;18.270;2023-07-13T01:10:11;100203.72;;;20.48;100.00
51928;BME280;37953;52.806;18.270;2023-07-13T01:12:40;100206.50;;;20.65;100.00
51928;BME280;37953;52.806;18.270;2023-07-13T01:18:31;100190.31;;;20.52;100.00
51928;BME280;37953;52.806;18.270;2023-07-13T01:21:02;100195.00;;;20.46;100.00
51928;BME280;37953;52.806;18.270;2023-07-13T01:23:33;100193.41;;;20.42;100.00
51928;BME280;37953;52.806;18.270;2023-07-13T01:26:00;100199.69;;;20.39;100.00
51928;BME280;37953;52.806;18.270;2023-07-13T01:28:26;100194.47;;;20.38;100.00
51928;BME280;37953;52.806;18.270;2023-07-13T01:30:56;100186.59;;;20.36;100.00
51928;BME280;37953;52.806;18.270;2023-07-13T01:33:23;100195.50;;;20.33;100.00
51928;BME280;37953;52.806;18.270;2023-07-13T01:35:49;100198.25;;;20.32;100.00
51928;BME280;37953;52.806;18.270;2023-07-13T01:38:16;100202.63;;;20.31;100.00
51928;BME280;37953;52.806;18.270;2023-07-13T01:40:43;100207.13;;;20.29;100.00
51928;BME280;37953;52.806;18.270;2023-07-13T01:43:10;100208.06;;;20.28;100.00
51928;BME280;37953;52.806;18.270;2023-07-13T01:45:36;100203.78;;;20.26;100.00
51928;BME280;37953;52.806;18.270;2023-07-13T01:48:03;100208.16;;;20.25;100.00
51928;BME280;37953;52.806;18.270;2023-07-13T01:50:32;100209.03;;;20.26;100.00
51928;BME280;37953;52.806;18.270;2023-07-13T01:52:58;100213.44;;;20.25;100.00
51928;BME280;37953;52.806;18.270;2023-07-13T01:55:28;100210.94;;;20.22;100.00
51928;BME280;37953;52.806;18.270;2023-07-13T01:57:54;100202.22;;;20.20;100.00
51928;BME280;37953;52.806;18.270;2023-07-13T02:00:20;100205.00;;;20.17;100.00
51928;BME280;37953;52.806;18.270;2023-07-13T02:02:46;100211.19;;;20.16;100.00
51928;BME280;37953;52.806;18.270;2023-07-13T02:05:12;100206.75;;;20.17;100.00
51928;BME280;37953;52.806;18.270;2023-07-13T02:07:39;100198.94;;;20.15;100.00
51928;BME280;37953;52.806;18.270;2023-07-13T02:10:07;100197.22;;;20.14;100.00
51928;BME280;37953;52.806;18.270;2023-07-13T02:12:40;100206.91;;;20.13;100.00
51928;BME280;37953;52.806;18.270;2023-07-13T02:15:08;100199.84;;;20.14;100.00
51928;BME280;37953;52.806;18.270;2023-07-13T02:17:35;100192.06;;;20.11;100.00
51928;BME280;37953;52.806;18.270;2023-07-13T02:20:03;100192.06;;;20.11;100.00
51928;BME280;37953;52.806;18.270;2023-07-13T02:22:30;100183.63;;;20.03;100.00
51928;BME280;37953;52.806;18.270;2023-07-13T02:24:56;100186.13;;;20.06;100.00
51928;BME280;37953;52.806;18.270;2023-07-13T02:27:22;100187.16;;;20.02;100.00
51928;BME280;37953;52.806;18.270;2023-07-13T02:29:48;100191.63;;;20.00;100.00
51928;BME280;37953;52.806;18.270;2023-07-13T02:32:17;100189.94;;;19.99;100.00
51928;BME280;37953;52.806;18.270;2023-07-13T02:34:44;100189.00;;;20.00;100.00
51928;BME280;37953;52.806;18.270;2023-07-13T02:37:11;100192.56;;;19.99;100.00
51928;BME280;37953;52.806;18.270;2023-07-13T02:39:36;100194.28;;;20.00;100.00
51928;BME280;37953;52.806;18.270;2023-07-13T02:42:05;100196.91;;;20.00;100.00
51928;BME280;37953;52.806;18.270;2023-07-13T02:44:37;100196.09;;;19.98;100.00
51928;BME280;37953;52.806;18.270;2023-07-13T02:47:03;100197.03;;;19.97;100.00
51928;BME280;37953;52.806;18.270;2023-07-13T02:49:29;100198.84;;;19.96;100.00
51928;BME280;37953;52.806;18.270;2023-07-13T02:51:55;100195.41;;;19.94;100.00
51928;BME280;37953;52.806;18.270;2023-07-13T02:54:21;100192.75;;;19.94;100.00
51928;BME280;37953;52.806;18.270;2023-07-13T02:56:47;100184.06;;;19.92;100.00
51928;BME280;37953;52.806;18.270;2023-07-13T02:59:13;100192.81;;;19.92;100.00
51928;BME280;37953;52.806;18.270;2023-07-13T03:01:39;100190.28;;;19.89;100.00
51928;BME280;37953;52.806;18.270;2023-07-13T03:04:05;100190.41;;;19.86;100.00
51928;BME280;37953;52.806;18.270;2023-07-13T03:06:32;100192.25;;;19.84;100.00
51928;BME280;37953;52.806;18.270;2023-07-13T03:08:58;100195.75;;;19.85;100.00
51928;BME280;37953;52.806;18.270;2023-07-13T03:11:27;100197.53;;;19.84;100.00
51928;BME280;37953;52.806;18.270;2023-07-13T03:13:53;100198.53;;;19.82;100.00
51928;BME280;37953;52.806;18.270;2023-07-13T03:16:19;100199.44;;;19.81;100.00
51928;BME280;37953;52.806;18.270;2023-07-13T03:18:46;100197.72;;;19.80;100.00
51928;BME280;37953;52.806;18.270;2023-07-13T03:21:13;100198.56;;;19.80;100.00
51928;BME280;37953;52.806;18.270;2023-07-13T03:23:38;100188.09;;;19.79;100.00
51928;BME280;37953;52.806;18.270;2023-07-13T03:26:13;100191.66;;;19.78;100.00
51928;BME280;37953;52.806;18.270;2023-07-13T03:28:45;100202.16;;;19.79;100.00
51928;BME280;37953;52.806;18.270;2023-07-13T03:31:17;100202.16;;;19.79;100.00
51928;BME280;37953;52.806;18.270;2023-07-13T03:33:44;100203.97;;;19.77;100.00
51928;BME280;37953;52.806;18.270;2023-07-13T03:36:18;100210.91;;;19.80;100.00
51928;BME280;37953;52.806;18.270;2023-07-13T03:38:52;100214.53;;;19.77;100.00
51928;BME280;37953;52.806;18.270;2023-07-13T03:41:18;100209.31;;;19.76;100.00
51928;BME280;37953;52.806;18.270;2023-07-13T03:43:44;100209.16;;;19.79;100.00
51928;BME280;37953;52.806;18.270;2023-07-13T03:46:11;100210.06;;;19.79;100.00
51928;BME280;37953;52.806;18.270;2023-07-13T03:48:37;100206.53;;;19.79;100.00
51928;BME280;37953;52.806;18.270;2023-07-13T03:51:03;100209.97;;;19.81;100.00
51928;BME280;37953;52.806;18.270;2023-07-13T03:53:28;100215.19;;;19.82;100.00
51928;BME280;37953;52.806;18.270;2023-07-13T03:55:55;100224.03;;;19.81;100.00
51928;BME280;37953;52.806;18.270;2023-07-13T04:00:56;100232.78;;;19.82;100.00
51928;BME280;37953;52.806;18.270;2023-07-13T04:03:23;100235.25;;;19.86;100.00
51928;BME280;37953;52.806;18.270;2023-07-13T04:05:56;100234.44;;;19.84;100.00
51928;BME280;37953;52.806;18.270;2023-07-13T04:08:32;100239.53;;;19.89;100.00
51928;BME280;37953;52.806;18.270;2023-07-13T04:11:03;100241.31;;;19.88;100.00
51928;BME280;37953;52.806;18.270;2023-07-13T04:13:29;100241.31;;;19.88;100.00
51928;BME280;37953;52.806;18.270;2023-07-13T04:15:56;100238.69;;;19.88;100.00
51928;BME280;37953;52.806;18.270;2023-07-13T04:18:23;100239.66;;;19.86;100.00
51928;BME280;37953;52.806;18.270;2023-07-13T04:20:50;100248.38;;;19.88;100.00
51928;BME280;37953;52.806;18.270;2023-07-13T04:23:16;100235.19;;;19.88;100.00
51928;BME280;37953;52.806;18.270;2023-07-13T04:25:51;100232.56;;;19.88;100.00
51928;BME280;37953;52.806;18.270;2023-07-13T04:28:25;100233.44;;;19.87;100.00
51928;BME280;37953;52.806;18.270;2023-07-13T04:30:54;100241.50;;;19.84;100.00
51928;BME280;37953;52.806;18.270;2023-07-13T04:33:20;100247.63;;;19.84;100.00
51928;BME280;37953;52.806;18.270;2023-07-13T04:35:50;100239.84;;;19.81;100.00
51928;BME280;37953;52.806;18.270;2023-07-13T04:38:20;100244.38;;;20.00;100.00
51928;BME280;37953;52.806;18.270;2023-07-13T04:40:47;100249.09;;;19.91;100.00
51928;BME280;37953;52.806;18.270;2023-07-13T04:43:13;100250.03;;;19.90;100.00
51928;BME280;37953;52.806;18.270;2023-07-13T04:45:39;100247.38;;;19.90;100.00
51928;BME280;37953;52.806;18.270;2023-07-13T04:48:05;100250.03;;;19.90;100.00
51928;BME280;37953;52.806;18.270;2023-07-13T04:50:31;100247.44;;;19.89;100.00
51928;BME280;37953;52.806;18.270;2023-07-13T04:52:57;100251.84;;;19.88;100.00
51928;BME280;37953;52.806;18.270;2023-07-13T04:55:25;100266.75;;;19.89;100.00
51928;BME280;37953;52.806;18.270;2023-07-13T04:57:51;100257.06;;;19.90;100.00
51928;BME280;37953;52.806;18.270;2023-07-13T05:00:17;100269.38;;;19.89;100.00
51928;BME280;37953;52.806;18.270;2023-07-13T05:02:54;100287.69;;;19.94;100.00
51928;BME280;37953;52.806;18.270;2023-07-13T05:05:21;100285.75;;;19.98;100.00
51928;BME280;37953;52.806;18.270;2023-07-13T05:07:47;100290.94;;;20.01;100.00
51928;BME280;37953;52.806;18.270;2023-07-13T05:10:13;100289.13;;;20.01;100.00
51928;BME280;37953;52.806;18.270;2023-07-13T05:12:39;100286.38;;;20.04;100.00
51928;BME280;37953;52.806;18.270;2023-07-13T05:15:05;100296.81;;;20.07;100.00
51928;BME280;37953;52.806;18.270;2023-07-13T05:17:31;100300.25;;;20.09;100.00
51928;BME280;37953;52.806;18.270;2023-07-13T05:19:59;100294.94;;;20.11;100.00
51928;BME280;37953;52.806;18.270;2023-07-13T05:22:27;100308.03;;;20.12;100.00
51928;BME280;37953;52.806;18.270;2023-07-13T05:24:53;100303.63;;;20.13;100.00
51928;BME280;37953;52.806;18.270;2023-07-13T05:27:19;100310.63;;;20.14;100.00
51928;BME280;37953;52.806;18.270;2023-07-13T05:29:45;100318.44;;;20.17;100.00
51928;BME280;37953;52.806;18.270;2023-07-13T05:32:13;100320.06;;;20.20;100.00
51928;BME280;37953;52.806;18.270;2023-07-13T05:34:39;100326.06;;;20.23;100.00
51928;BME280;37953;52.806;18.270;2023-07-13T05:37:05;100328.66;;;20.25;100.00
51928;BME280;37953;52.806;18.270;2023-07-13T05:39:31;100325.16;;;20.24;100.00
51928;BME280;37953;52.806;18.270;2023-07-13T05:41:57;100328.66;;;20.25;100.00
51928;BME280;37953;52.806;18.270;2023-07-13T05:44:25;100333.88;;;20.26;100.00
51928;BME280;37953;52.806;18.270;2023-07-13T05:46:51;100341.66;;;20.29;100.00
51928;BME280;37953;52.806;18.270;2023-07-13T05:49:20;100352.22;;;20.29;100.00
51928;BME280;37953;52.806;18.270;2023-07-13T05:51:46;100350.44;;;20.30;100.00
51928;BME280;37953;52.806;18.270;2023-07-13T05:54:12;100349.53;;;20.31;100.00
51928;BME280;37953;52.806;18.270;2023-07-13T05:56:38;100347.72;;;20.31;100.00
51928;BME280;37953;52.806;18.270;2023-07-13T05:59:04;100334.53;;;20.31;100.00
51928;BME280;37953;52.806;18.270;2023-07-13T06:01:30;100322.28;;;20.30;100.00
51928;BME280;37953;52.806;18.270;2023-07-13T06:03:56;100321.44;;;20.30;100.00
51928;BME280;37953;52.806;18.270;2023-07-13T06:06:22;100319.66;;;20.30;100.00
51928;BME280;37953;52.806;18.270;2023-07-13T06:08:50;100320.44;;;20.32;100.00
51928;BME280;37953;52.806;18.270;2023-07-13T06:11:23;100323.03;;;20.34;100.00
51928;BME280;37953;52.806;18.270;2023-07-13T06:13:50;100306.41;;;20.32;100.00
51928;BME280;37953;52.806;18.270;2023-07-13T06:16:17;100316.03;;;20.33;100.00
51928;BME280;37953;52.806;18.270;2023-07-13T06:18:43;100311.50;;;20.37;100.00
51928;BME280;37953;52.806;18.270;2023-07-13T06:21:16;100312.34;;;20.37;100.00
51928;BME280;37953;52.806;18.270;2023-07-13T06:23:43;100309.75;;;20.36;100.00
51928;BME280;37953;52.806;18.270;2023-07-13T06:26:09;100308.84;;;20.37;100.00
51928;BME280;37953;52.806;18.270;2023-07-13T06:28:36;100307.91;;;20.38;100.00
51928;BME280;37953;52.806;18.270;2023-07-13T06:31:05;100317.44;;;20.42;100.00
51928;BME280;37953;52.806;18.270;2023-07-13T06:33:31;100320.00;;;20.43;100.00
51928;BME280;37953;52.806;18.270;2023-07-13T06:35:58;100316.53;;;20.43;100.00
51928;BME280;37953;52.806;18.270;2023-07-13T06:38:24;100321.78;;;20.43;100.00
51928;BME280;37953;52.806;18.270;2023-07-13T06:40:50;100333.16;;;20.45;100.00
51928;BME280;37953;52.806;18.270;2023-07-13T06:43:16;100325.28;;;20.43;100.00
51928;BME280;37953;52.806;18.270;2023-07-13T06:45:45;100329.47;;;20.49;100.00
51928;BME280;37953;52.806;18.270;2023-07-13T06:48:19;100338.16;;;20.51;100.00
51928;BME280;37953;52.806;18.270;2023-07-13T06:50:46;100339.94;;;20.50;100.00
51928;BME280;37953;52.806;18.270;2023-07-13T06:53:12;100343.38;;;20.52;100.00
51928;BME280;37953;52.806;18.270;2023-07-13T06:55:38;100341.59;;;20.53;100.00
51928;BME280;37953;52.806;18.270;2023-07-13T06:58:05;100342.38;;;20.55;100.00
51928;BME280;37953;52.806;18.270;2023-07-13T07:00:37;100344.13;;;20.56;100.00
51928;BME280;37953;52.806;18.270;2023-07-13T07:03:06;100342.34;;;20.57;100.00
51928;BME280;37953;52.806;18.270;2023-07-13T07:05:32;100337.88;;;20.59;100.00
51928;BME280;37953;52.806;18.270;2023-07-13T07:07:58;100344.00;;;20.59;100.00
51928;BME280;37953;52.806;18.270;2023-07-13T07:10:25;100352.81;;;20.60;100.00
51928;BME280;37953;52.806;18.270;2023-07-13T07:12:51;100352.81;;;20.60;100.00
51928;BME280;37953;52.806;18.270;2023-07-13T07:15:19;100354.56;;;20.59;100.00
51928;BME280;37953;52.806;18.270;2023-07-13T07:17:45;100359.84;;;20.59;100.00
51928;BME280;37953;52.806;18.270;2023-07-13T07:20:11;100362.38;;;20.62;100.00
51928;BME280;37953;52.806;18.270;2023-07-13T07:22:37;100364.09;;;20.63;100.00
51928;BME280;37953;52.806;18.270;2023-07-13T07:25:03;100368.47;;;20.64;100.00
51928;BME280;37953;52.806;18.270;2023-07-13T07:27:29;100372.75;;;20.67;100.00
51928;BME280;37953;52.806;18.270;2023-07-13T07:29:55;100371.94;;;20.65;100.00
51928;BME280;37953;52.806;18.270;2023-07-13T07:32:23;100369.25;;;20.66;100.00
51928;BME280;37953;52.806;18.270;2023-07-13T07:34:49;100364.78;;;20.68;100.00
51928;BME280;37953;52.806;18.270;2023-07-13T07:37:15;100371.69;;;20.71;100.00
51928;BME280;37953;52.806;18.270;2023-07-13T07:39:43;100367.28;;;20.71;100.00
51928;BME280;37953;52.806;18.270;2023-07-13T07:42:11;100375.16;;;20.73;100.00
51928;BME280;37953;52.806;18.270;2023-07-13T07:44:39;100370.75;;;20.72;100.00
51928;BME280;37953;52.806;18.270;2023-07-13T07:47:14;100386.44;;;20.77;100.00
51928;BME280;37953;52.806;18.270;2023-07-13T07:49:43;100373.53;;;20.69;100.00
51928;BME280;37953;52.806;18.270;2023-07-13T07:52:10;100383.06;;;20.73;100.00
51928;BME280;37953;52.806;18.270;2023-07-13T07:54:35;100380.22;;;20.78;100.00
51928;BME280;37953;52.806;18.270;2023-07-13T07:57:02;100364.63;;;20.71;100.00
51928;BME280;37953;52.806;18.270;2023-07-13T07:59:28;100368.88;;;20.76;100.00
51928;BME280;37953;52.806;18.270;2023-07-13T08:01:54;100378.44;;;20.78;100.00
51928;BME280;37953;52.806;18.270;2023-07-13T08:04:19;100380.22;;;20.78;100.00
51928;BME280;37953;52.806;18.270;2023-07-13T08:06:47;100383.56;;;20.83;100.00
51928;BME280;37953;52.806;18.270;2023-07-13T08:09:13;100383.41;;;20.86;100.00
51928;BME280;37953;52.806;18.270;2023-07-13T08:11:39;100390.41;;;20.87;100.00
51928;BME280;37953;52.806;18.270;2023-07-13T08:14:05;100376.47;;;20.83;100.00
51928;BME280;37953;52.806;18.270;2023-07-13T08:16:31;100377.03;;;20.91;100.00
51928;BME280;37953;52.806;18.270;2023-07-13T08:18:58;100378.00;;;20.89;100.00
51928;BME280;37953;52.806;18.270;2023-07-13T08:21:24;100378.53;;;20.97;100.00
51928;BME280;37953;52.806;18.270;2023-07-13T08:23:50;100385.56;;;20.98;100.00
51928;BME280;37953;52.806;18.270;2023-07-13T08:26:16;100385.41;;;21.01;100.00
51928;BME280;37953;52.806;18.270;2023-07-13T08:28:42;100380.94;;;21.03;100.00
51928;BME280;37953;52.806;18.270;2023-07-13T08:31:09;100393.06;;;21.07;100.00
51928;BME280;37953;52.806;18.270;2023-07-13T08:33:38;100396.47;;;21.11;100.00
51928;BME280;37953;52.806;18.270;2023-07-13T08:36:04;100390.13;;;21.15;100.00
51928;BME280;37953;52.806;18.270;2023-07-13T08:38:33;100389.19;;;21.16;100.00
51928;BME280;37953;52.806;18.270;2023-07-13T08:40:59;100386.50;;;21.18;100.00
51928;BME280;37953;52.806;18.270;2023-07-13T08:43:28;100389.00;;;21.21;100.00
51928;BME280;37953;52.806;18.270;2023-07-13T08:49:03;100380.00;;;21.25;100.00
51928;BME280;37953;52.806;18.270;2023-07-13T08:51:46;100379.88;;;21.28;100.00
51928;BME280;37953;52.806;18.270;2023-07-13T08:54:25;100380.69;;;21.30;100.00
51928;BME280;37953;52.806;18.270;2023-07-13T08:57:17;100386.66;;;21.33;100.00
51928;BME280;37953;52.806;18.270;2023-07-13T08:59:44;100383.28;;;21.31;100.00
51928;BME280;37953;52.806;18.270;2023-07-13T09:04:50;100393.53;;;21.38;100.00
51928;BME280;37953;52.806;18.270;2023-07-13T09:10:14;100393.25;;;21.45;100.00
51928;BME280;37953;52.806;18.270;2023-07-13T09:15:51;100386.06;;;21.49;100.00
51928;BME280;37953;52.806;18.270;2023-07-13T09:18:37;100385.84;;;21.53;100.00
51928;BME280;37953;52.806;18.270;2023-07-13T09:21:13;100379.63;;;21.54;100.00
51928;BME280;37953;52.806;18.270;2023-07-13T09:23:41;100385.78;;;21.55;100.00
51928;BME280;37953;52.806;18.270;2023-07-13T09:26:21;100380.31;;;21.60;100.00
51928;BME280;37953;52.806;18.270;2023-07-13T09:29:09;100376.59;;;21.64;100.00
51928;BME280;37953;52.806;18.270;2023-07-13T09:31:54;100377.19;;;21.70;100.00
51928;BME280;37953;52.806;18.270;2023-07-13T09:34:32;100375.16;;;21.75;100.00
51928;BME280;37953;52.806;18.270;2023-07-13T09:36:59;100372.47;;;21.77;100.00
51928;BME280;37953;52.806;18.270;2023-07-13T09:39:38;100370.59;;;21.79;100.00
51928;BME280;37953;52.806;18.270;2023-07-13T09:44:39;100358.91;;;21.85;100.00
51928;BME280;37953;52.806;18.270;2023-07-13T09:47:24;100361.13;;;21.94;100.00
51928;BME280;37953;52.806;18.270;2023-07-13T09:50:20;100364.19;;;22.04;100.00
51928;BME280;37953;52.806;18.270;2023-07-13T09:52:54;100360.31;;;22.11;100.00
51928;BME280;37953;52.806;18.270;2023-07-13T09:55:34;100361.75;;;22.18;100.00
51928;BME280;37953;52.806;18.270;2023-07-13T09:58:30;100363.31;;;22.22;100.00
51928;BME280;37953;52.806;18.270;2023-07-13T10:01:00;100362.28;;;22.26;100.00
51928;BME280;37953;52.806;18.270;2023-07-13T10:03:31;100368.34;;;22.28;100.00
51928;BME280;37953;52.806;18.270;2023-07-13T10:06:18;100370.94;;;22.30;100.00
51928;BME280;37953;52.806;18.270;2023-07-13T10:08:46;100365.56;;;22.31;100.00
51928;BME280;37953;52.806;18.270;2023-07-13T10:11:22;100370.88;;;22.31;100.00
51928;BME280;37953;52.806;18.270;2023-07-13T10:14:03;100376.06;;;22.33;100.00
51928;BME280;37953;52.806;18.270;2023-07-13T10:17:01;100377.81;;;22.34;100.00
51928;BME280;37953;52.806;18.270;2023-07-13T10:19:32;100380.22;;;22.39;100.00
51928;BME280;37953;52.806;18.270;2023-07-13T10:22:22;100370.41;;;22.41;100.00
51928;BME280;37953;52.806;18.270;2023-07-13T10:24:49;100374.88;;;22.40;100.00
51928;BME280;37953;52.806;18.270;2023-07-13T10:27:31;100371.28;;;22.41;100.00
51928;BME280;37953;52.806;18.270;2023-07-13T10:30:17;100368.56;;;22.43;100.00
51928;BME280;37953;52.806;18.270;2023-07-13T10:32:51;100371.13;;;22.44;100.00
51928;BME280;37953;52.806;18.270;2023-07-13T10:35:20;100372.00;;;22.45;100.00
51928;BME280;37953;52.806;18.270;2023-07-13T10:38:07;100373.56;;;22.49;100.00
51928;BME280;37953;52.806;18.270;2023-07-13T10:40:40;100373.63;;;22.47;100.00
51928;BME280;37953;52.806;18.270;2023-07-13T10:43:37;100363.81;;;22.49;100.00
51928;BME280;37953;52.806;18.270;2023-07-13T10:46:15;100369.13;;;22.49;100.00
51928;BME280;37953;52.806;18.270;2023-07-13T10:48:43;100369.19;;;22.48;100.00
51928;BME280;37953;52.806;18.270;2023-07-13T10:51:13;100371.81;;;22.48;100.00
51928;BME280;37953;52.806;18.270;2023-07-13T10:53:41;100369.03;;;22.51;100.00
51928;BME280;37953;52.806;18.270;2023-07-13T10:58:40;100353.94;;;22.53;100.00
51928;BME280;37953;52.806;18.270;2023-07-13T11:01:15;100362.66;;;22.55;100.00
51928;BME280;37953;52.806;18.270;2023-07-13T11:03:55;100363.53;;;22.55;100.00
51928;BME280;37953;52.806;18.270;2023-07-13T11:08:59;100374.13;;;22.55;100.00
51928;BME280;37953;52.806;18.270;2023-07-13T11:11:35;100375.84;;;22.56;100.00
51928;BME280;37953;52.806;18.270;2023-07-13T11:14:29;100378.34;;;22.60;100.00
51928;BME280;37953;52.806;18.270;2023-07-13T11:16:55;100379.19;;;22.60;100.00
51928;BME280;37953;52.806;18.270;2023-07-13T11:27:44;100381.41;;;22.69;100.00
51928;BME280;37953;52.806;18.270;2023-07-13T11:30:19;100387.47;;;22.71;100.00
51928;BME280;37953;52.806;18.270;2023-07-13T11:32:50;100390.91;;;22.73;100.00
51928;BME280;37953;52.806;18.270;2023-07-13T11:35:23;100388.16;;;22.75;100.00
51928;BME280;37953;52.806;18.270;2023-07-13T11:37:52;100398.69;;;22.76;100.00
51928;BME280;37953;52.806;18.270;2023-07-13T11:40:27;100387.97;;;22.80;100.00
51928;BME280;37953;52.806;18.270;2023-07-13T11:43:02;100395.69;;;22.84;100.00
51928;BME280;37953;52.806;18.270;2023-07-13T11:45:28;100384.00;;;22.88;100.00
51928;BME280;37953;52.806;18.270;2023-07-13T11:47:54;100381.03;;;22.94;100.00
51928;BME280;37953;52.806;18.270;2023-07-13T11:50:24;100385.16;;;23.00;100.00
51928;BME280;37953;52.806;18.270;2023-07-13T11:52:52;100381.22;;;23.09;100.00
51928;BME280;37953;52.806;18.270;2023-07-13T11:55:25;100371.00;;;23.19;100.00
51928;BME280;37953;52.806;18.270;2023-07-13T11:58:04;100367.09;;;23.26;100.00
51928;BME280;37953;52.806;18.270;2023-07-13T12:00:32;100368.41;;;23.34;100.00
51928;BME280;37953;52.806;18.270;2023-07-13T12:02:59;100374.34;;;23.40;100.00
51928;BME280;37953;52.806;18.270;2023-07-13T12:05:26;100360.84;;;23.44;100.00
51928;BME280;37953;52.806;18.270;2023-07-13T12:07:52;100362.59;;;23.45;100.00
51928;BME280;37953;52.806;18.270;2023-07-13T12:10:23;100360.78;;;23.46;100.00
51928;BME280;37953;52.806;18.270;2023-07-13T12:12:57;100361.56;;;23.48;100.00
51928;BME280;37953;52.806;18.270;2023-07-13T12:15:30;100363.97;;;23.52;100.00
51928;BME280;37953;52.806;18.270;2023-07-13T12:18:29;100356.53;;;23.59;100.00
51928;BME280;37953;52.806;18.270;2023-07-13T12:20:57;100353.63;;;23.64;100.00
51928;BME280;37953;52.806;18.270;2023-07-13T12:23:34;100369.28;;;23.68;100.00
51928;BME280;37953;52.806;18.270;2023-07-13T12:26:07;100375.47;;;23.69;100.00
51928;BME280;37953;52.806;18.270;2023-07-13T12:28:53;100371.88;;;23.70;100.00
51928;BME280;37953;52.806;18.270;2023-07-13T12:31:42;100375.47;;;23.69;100.00
51928;BME280;37953;52.806;18.270;2023-07-13T12:36:51;100376.56;;;23.65;100.00
51928;BME280;37953;52.806;18.270;2023-07-13T12:39:23;100375.78;;;23.63;100.00
51928;BME280;37953;52.806;18.270;2023-07-13T12:41:51;100375.09;;;23.59;100.00
51928;BME280;37953;52.806;18.270;2023-07-13T12:44:25;100373.41;;;23.58;100.00
51928;BME280;37953;52.806;18.270;2023-07-13T12:46:56;100377.16;;;23.54;100.00
51928;BME280;37953;52.806;18.270;2023-07-13T12:49:29;100385.16;;;23.52;100.00
51928;BME280;37953;52.806;18.270;2023-07-13T12:52:00;100400.38;;;23.49;100.00
51928;BME280;37953;52.806;18.270;2023-07-13T12:54:28;100397.03;;;23.45;100.00
51928;BME280;37953;52.806;18.270;2023-07-13T12:56:55;100402.56;;;23.41;100.00
51928;BME280;37953;52.806;18.270;2023-07-13T12:59:25;100402.97;;;23.33;100.00
51928;BME280;37953;52.806;18.270;2023-07-13T13:01:54;100392.69;;;23.27;100.00
51928;BME280;37953;52.806;18.270;2023-07-13T13:04:20;100393.06;;;23.19;100.00
51928;BME280;37953;52.806;18.270;2023-07-13T13:06:48;100394.22;;;23.13;100.00
51928;BME280;37953;52.806;18.270;2023-07-13T13:09:16;100392.75;;;23.08;100.00
51928;BME280;37953;52.806;18.270;2023-07-13T13:11:44;100392.84;;;23.06;100.00
51928;BME280;37953;52.806;18.270;2023-07-13T13:14:10;100384.94;;;23.05;100.00
51928;BME280;37953;52.806;18.270;2023-07-13T13:21:48;100401.09;;;23.17;100.00
51928;BME280;37953;52.806;18.270;2023-07-13T13:24:21;100400.94;;;23.21;100.00
51928;BME280;37953;52.806;18.270;2023-07-13T13:26:50;100404.81;;;23.13;100.00